Time;durP1;ratioP1;P1;durP2;ratioP2;P2;SDS_P1;SDS_P2;PMS_P1;PMS_P2;Temp;Humidity;BMP_temperature;BMP_pressure;BME280_temperature;BME280_humidity;BME280_pressure;Samples;Min_cycle;Max_cycle;Signal;HPM_P1;HPM_P2
2022/03/04 00:18:29;;;;;;;23.00;14.00;;;1.00;37.10;;;;;;4999595;28;20274;-87
2022/03/04 00:20:56;;;;;;;25.37;13.40;;;1.00;37.30;;;;;;5004768;28;20274;-88
2022/03/04 00:23:36;;;;;;;24.90;13.00;;;0.90;37.00;;;;;;5022322;28;20217;-88
2022/03/04 01:24:40;;;;;;;22.67;13.10;;;0.60;42.10;;;;;;5084855;28;20182;-89
2022/03/04 01:27:10;;;;;;;28.20;13.90;;;0.50;42.60;;;;;;5083652;28;20227;-89
2022/03/04 01:29:37;;;;;;;22.53;13.70;;;0.40;42.50;;;;;;5074055;28;20296;-89
2022/03/04 01:32:05;;;;;;;22.80;14.27;;;0.40;42.90;;;;;;5071823;28;20307;-87
2022/03/04 01:34:32;;;;;;;23.63;14.40;;;0.40;43.40;;;;;;5063933;28;20249;-88
2022/03/04 01:37:09;;;;;;;21.50;12.70;;;0.30;43.40;;;;;;5064584;28;20199;-89
2022/03/04 01:42:24;;;;;;;25.37;13.93;;;0.40;46.70;;;;;;5040533;28;20205;-89
2022/03/04 01:44:51;;;;;;;25.57;14.30;;;0.40;43.10;;;;;;5076011;28;20313;-88
2022/03/04 01:47:18;;;;;;;23.17;14.23;;;0.30;43.30;;;;;;5063092;28;20186;-87
2022/03/04 01:52:24;;;;;;;27.20;14.17;;;0.30;43.80;;;;;;5367933;22;20233;-89
2022/03/04 01:54:53;;;;;;;22.73;13.47;;;0.20;43.30;;;;;;5064052;28;20575;-89
2022/03/04 02:00:43;;;;;;;24.10;13.17;;;0.10;43.80;;;;;;5064621;28;20232;-89
2022/03/04 02:05:53;;;;;;;21.30;13.17;;;0.10;43.20;;;;;;5061328;28;20236;-88
2022/03/04 02:08:48;;;;;;;21.03;13.40;;;0.10;42.80;;;;;;5063887;28;20215;-88
2022/03/04 02:34:44;;;;;;;22.97;13.83;;;-0.20;45.80;;;;;;5027994;28;20257;-89
2022/03/04 02:37:11;;;;;;;23.17;12.83;;;-0.20;45.70;;;;;;5060828;28;20627;-89
2022/03/04 02:39:38;;;;;;;22.90;14.20;;;-0.10;47.60;;;;;;5062417;28;20204;-91
2022/03/04 02:42:06;;;;;;;21.27;13.13;;;0.10;49.40;;;;;;5062952;28;20272;-90
2022/03/04 02:44:33;;;;;;;22.23;13.13;;;0.30;51.20;;;;;;5063190;28;20260;-89
2022/03/04 02:47:00;;;;;;;25.23;14.00;;;0.40;50.20;;;;;;5062857;28;20276;-89
2022/03/04 02:49:30;;;;;;;21.13;13.23;;;0.50;50.30;;;;;;5056112;28;20225;-88
2022/03/04 02:51:57;;;;;;;22.57;14.50;;;0.50;50.10;;;;;;5055429;28;20226;-88
2022/03/04 02:54:24;;;;;;;23.13;14.20;;;0.50;49.40;;;;;;5057485;28;20276;-88
2022/03/04 02:56:51;;;;;;;21.87;13.97;;;0.40;51.30;;;;;;5042079;28;20218;-87
2022/03/04 02:59:19;;;;;;;26.30;13.67;;;0.30;52.20;;;;;;5060176;28;20222;-88
2022/03/04 03:01:46;;;;;;;22.10;13.80;;;0.30;51.50;;;;;;5060840;28;20242;-87
2022/03/04 03:04:37;;;;;;;23.87;14.83;;;0.30;52.60;;;;;;5064007;28;20227;-87
2022/03/04 03:10:44;;;;;;;22.23;13.57;;;0.20;50.90;;;;;;5068098;28;20201;-87
2022/03/04 03:13:12;;;;;;;22.20;13.17;;;0.00;51.80;;;;;;5066892;28;20206;-87
2022/03/04 03:15:39;;;;;;;22.33;14.00;;;-0.10;51.30;;;;;;5067240;28;20254;-90
2022/03/04 03:18:06;;;;;;;27.33;14.10;;;-0.10;53.10;;;;;;5034018;28;20643;-90
2022/03/04 03:20:35;;;;;;;24.60;14.33;;;-0.20;54.60;;;;;;5049464;28;20289;-88
2022/03/04 03:23:03;;;;;;;21.13;13.33;;;-0.10;53.10;;;;;;5061038;28;20207;-90
2022/03/04 03:25:30;;;;;;;25.20;14.03;;;-0.10;55.30;;;;;;5061552;28;20246;-87
2022/03/04 03:27:58;;;;;;;23.30;14.10;;;-0.20;53.50;;;;;;5061669;28;20210;-87
2022/03/04 07:45:59;;;;;;;31.20;14.00;;;0.90;40.90;;;;;;5086844;28;20184;-87
2022/03/04 07:51:33;;;;;;;25.07;14.43;;;1.40;38.20;;;;;;5070561;28;20232;-87
2022/03/04 08:05:33;;;;;;;22.13;13.57;;;2.10;32.50;;;;;;5045161;28;20182;-87
2022/03/04 08:15:14;;;;;;;20.50;13.33;;;2.80;30.10;;;;;;5063982;28;20169;-89
2022/03/04 08:17:59;;;;;;;25.17;13.47;;;3.10;29.60;;;;;;5058334;28;20209;-89
2022/03/04 08:20:26;;;;;;;23.50;14.67;;;3.30;29.10;;;;;;5031456;28;20238;-81
2022/03/04 08:22:54;;;;;;;26.13;14.60;;;3.70;28.80;;;;;;5050915;28;20205;-80
2022/03/04 08:25:22;;;;;;;24.40;12.97;;;3.90;28.30;;;;;;5051979;28;20247;-88
2022/03/04 08:28:05;;;;;;;24.00;13.73;;;3.50;25.80;;;;;;5052830;28;20202;-89
2022/03/04 08:30:34;;;;;;;22.03;12.90;;;3.50;25.70;;;;;;5028525;28;20236;-88
2022/03/04 08:33:37;;;;;;;24.47;13.90;;;3.50;25.10;;;;;;5059124;28;20201;-90
2022/03/04 08:36:36;;;;;;;24.60;12.93;;;3.30;25.70;;;;;;5043173;28;20243;-90
2022/03/04 08:39:05;;;;;;;22.00;14.07;;;3.20;27.80;;;;;;5066377;28;20285;-87
2022/03/04 08:41:33;;;;;;;25.10;13.63;;;3.30;26.30;;;;;;5054815;28;20280;-88
2022/03/04 08:44:01;;;;;;;22.57;14.00;;;3.50;27.20;;;;;;5043131;28;20212;-90
2022/03/04 08:46:33;;;;;;;19.37;13.13;;;3.40;26.50;;;;;;5058567;28;20292;-88
2022/03/04 08:49:01;;;;;;;21.40;13.60;;;3.70;26.20;;;;;;5051602;28;20689;-90
2022/03/04 08:51:30;;;;;;;21.83;13.20;;;4.10;24.60;;;;;;5039040;28;20225;-85
2022/03/04 08:54:37;;;;;;;23.40;13.27;;;4.30;23.60;;;;;;5057910;28;20266;-88
2022/03/04 08:57:28;;;;;;;20.60;13.27;;;4.50;22.40;;;;;;5036193;28;20237;-88
2022/03/04 09:00:35;;;;;;;22.90;14.60;;;4.80;21.20;;;;;;5036039;28;20200;-88
2022/03/04 09:03:05;;;;;;;24.83;14.07;;;4.50;22.10;;;;;;5046963;28;20232;-88
2022/03/04 09:06:09;;;;;;;24.17;13.97;;;5.20;21.50;;;;;;5062505;28;20529;-88
2022/03/04 09:09:01;;;;;;;22.30;14.77;;;5.70;21.90;;;;;;5060565;28;20197;-91
2022/03/04 09:11:28;;;;;;;23.67;13.93;;;6.10;20.00;;;;;;5061837;28;20240;-90
2022/03/04 09:17:04;;;;;;;21.67;13.95;;;7.50;17.80;;;;;;5991893;22;20245;-92
2022/03/04 11:36:32;;;;;;;17.50;13.00;;;8.60;15.50;;;;;;5180479;23;20242;-89
2022/03/04 11:39:02;;;;;;;21.67;14.52;;;8.50;14.40;;;;;;5027155;28;20706;-88
2022/03/04 11:45:45;;;;;;;22.02;14.80;;;7.50;16.90;;;;;;5027406;28;20183;-85
2022/03/04 11:50:52;;;;;;;20.90;14.18;;;7.10;17.20;;;;;;5020376;28;20242;-84
2022/03/04 11:53:22;;;;;;;23.15;14.93;;;7.00;18.20;;;;;;5003085;28;20611;-89
2022/03/04 11:56:15;;;;;;;23.88;14.68;;;7.40;17.50;;;;;;5005550;28;20306;-88
2022/03/04 11:59:05;;;;;;;26.08;15.85;;;7.50;17.50;;;;;;5022479;28;20203;-88
2022/03/04 12:01:37;;;;;;;25.33;16.15;;;7.60;17.70;;;;;;5015200;28;20231;-88
2022/03/04 12:04:08;;;;;;;21.60;14.98;;;7.60;18.80;;;;;;5020355;28;20602;-86
2022/03/04 12:06:38;;;;;;;21.27;14.70;;;7.30;17.30;;;;;;5021376;28;20233;-87
2022/03/04 12:09:29;;;;;;;21.73;14.73;;;7.50;17.30;;;;;;5022573;28;20215;-86
2022/03/04 12:12:14;;;;;;;24.60;14.13;;;7.30;17.40;;;;;;5019150;28;20219;-87
2022/03/04 12:18:08;;;;;;;20.37;14.27;;;7.50;18.40;;;;;;5023882;28;20174;-87
2022/03/04 12:24:13;;;;;;;19.23;13.55;;;7.70;17.80;;;;;;5024475;28;20174;-87
2022/03/04 12:26:45;;;;;;;20.77;13.77;;;7.70;17.00;;;;;;5024739;28;20249;-87
2022/03/04 12:32:50;;;;;;;18.47;12.77;;;7.40;17.60;;;;;;5021285;28;20182;-88
2022/03/04 12:35:22;;;;;;;17.13;12.57;;;7.30;17.00;;;;;;5027893;28;20210;-88
2022/03/04 12:37:49;;;;;;;20.23;13.17;;;7.20;16.30;;;;;;5018306;28;20612;-86
2022/03/04 12:40:19;;;;;;;20.57;13.27;;;7.10;16.80;;;;;;5017363;28;20219;-88
2022/03/04 12:43:23;;;;;;;20.03;13.00;;;7.10;17.90;;;;;;5019230;28;20203;-90
2022/03/04 12:45:55;;;;;;;18.07;12.07;;;7.20;16.90;;;;;;5014268;28;20219;-86
2022/03/04 12:48:28;;;;;;;14.10;10.30;;;7.20;16.40;;;;;;5019558;28;20218;-88
2022/03/04 12:50:55;;;;;;;16.17;11.13;;;7.10;15.50;;;;;;5017891;28;20234;-85
2022/03/04 12:53:30;;;;;;;16.43;10.83;;;7.00;15.90;;;;;;5019498;28;20235;-89
2022/03/04 12:56:04;;;;;;;18.60;11.33;;;7.00;16.50;;;;;;5020417;28;20229;-86
2022/03/04 12:58:54;;;;;;;18.13;11.23;;;7.00;16.20;;;;;;5021090;28;20195;-87
2022/03/04 13:01:23;;;;;;;16.20;11.03;;;7.10;16.10;;;;;;5020208;28;20310;-85
2022/03/04 13:03:51;;;;;;;17.53;11.80;;;6.80;16.50;;;;;;5015256;28;20227;-85
2022/03/04 13:06:20;;;;;;;14.17;10.50;;;6.80;16.50;;;;;;5027379;28;20265;-90
2022/03/04 13:08:53;;;;;;;16.60;9.70;;;6.90;16.50;;;;;;5025071;28;20206;-87
2022/03/04 13:11:24;;;;;;;14.07;8.83;;;6.90;16.00;;;;;;5033172;28;20226;-87
2022/03/04 13:14:34;;;;;;;14.00;9.03;;;7.00;14.80;;;;;;5032030;28;20284;-88
2022/03/04 13:17:01;;;;;;;15.67;10.70;;;7.00;14.90;;;;;;5023311;28;20277;-88
2022/03/04 13:19:30;;;;;;;15.53;10.83;;;7.00;16.20;;;;;;5028582;28;20206;-87
2022/03/04 13:22:00;;;;;;;17.23;11.13;;;7.00;16.80;;;;;;5024545;28;20237;-85
2022/03/04 13:24:29;;;;;;;18.77;12.47;;;7.00;16.70;;;;;;5023047;28;20203;-85
2022/03/04 13:27:05;;;;;;;19.73;12.63;;;6.70;17.60;;;;;;5026089;28;20305;-88
2022/03/04 13:29:35;;;;;;;20.47;13.00;;;6.90;17.90;;;;;;5029611;28;20230;-85
2022/03/04 13:32:36;;;;;;;19.47;12.73;;;6.90;17.70;;;;;;5017612;28;20621;-87
2022/03/04 13:35:04;;;;;;;18.53;12.37;;;6.60;18.70;;;;;;5018220;28;20652;-85
2022/03/04 13:37:40;;;;;;;21.20;12.60;;;6.80;18.10;;;;;;5022239;28;20227;-86
2022/03/04 13:40:09;;;;;;;23.07;13.00;;;6.60;18.40;;;;;;5022490;28;20316;-85
2022/03/04 13:42:50;;;;;;;18.53;12.90;;;6.70;18.80;;;;;;5018898;28;20282;-85
2022/03/04 13:45:44;;;;;;;20.30;12.50;;;6.80;18.20;;;;;;5021346;28;20219;-86
2022/03/04 13:48:12;;;;;;;16.83;11.20;;;6.80;18.10;;;;;;5021369;28;20251;-86
2022/03/04 13:50:41;;;;;;;15.40;10.93;;;6.80;17.70;;;;;;5014495;28;20287;-87
2022/03/04 13:53:10;;;;;;;15.80;10.27;;;6.80;17.70;;;;;;5023218;28;20558;-87
2022/03/04 13:55:41;;;;;;;27.40;18.07;;;6.80;17.50;;;;;;5018503;28;20278;-87
2022/03/04 13:58:13;;;;;;;18.60;11.63;;;6.70;17.80;;;;;;5021405;28;20273;-87
2022/03/04 14:00:42;;;;;;;13.90;9.57;;;6.40;17.80;;;;;;5023273;28;20219;-86
2022/03/04 14:03:11;;;;;;;14.40;9.50;;;6.60;17.60;;;;;;5021633;28;20200;-85
2022/03/04 14:05:40;;;;;;;11.87;9.03;;;6.70;17.10;;;;;;5019970;28;21166;-85
2022/03/04 14:08:10;;;;;;;14.53;9.43;;;6.70;17.20;;;;;;5016002;28;20203;-86
2022/03/04 14:10:39;;;;;;;12.07;9.03;;;6.70;17.00;;;;;;5016122;28;20322;-84
2022/03/04 14:13:08;;;;;;;14.30;9.90;;;6.50;17.20;;;;;;5021624;28;20212;-85
2022/03/04 14:15:52;;;;;;;16.07;9.93;;;6.50;17.60;;;;;;5017227;28;20237;-89
2022/03/04 14:18:24;;;;;;;18.13;10.53;;;6.60;17.50;;;;;;5013817;28;20227;-89
2022/03/04 14:20:57;;;;;;;14.57;10.50;;;6.60;17.60;;;;;;5009374;28;20227;-87
2022/03/04 14:23:33;;;;;;;14.30;9.83;;;6.60;17.20;;;;;;5020202;28;20223;-85
2022/03/04 14:26:07;;;;;;;15.80;10.40;;;6.50;17.70;;;;;;5018915;28;20264;-86
2022/03/04 14:28:34;;;;;;;16.10;10.97;;;6.50;18.20;;;;;;5015282;28;20222;-86
2022/03/04 14:31:06;;;;;;;16.07;10.93;;;6.40;18.60;;;;;;5018831;28;21553;-86
2022/03/04 14:33:33;;;;;;;15.27;10.50;;;6.50;18.60;;;;;;5034672;28;20262;-87
2022/03/04 14:36:00;;;;;;;15.47;10.30;;;6.30;19.40;;;;;;5022225;28;20232;-85
2022/03/04 14:38:28;;;;;;;15.30;9.97;;;6.40;19.10;;;;;;5021371;28;20225;-85
2022/03/04 14:40:56;;;;;;;16.17;10.20;;;6.40;19.50;;;;;;5009372;28;20219;-88
2022/03/04 14:43:25;;;;;;;14.13;9.60;;;6.50;18.80;;;;;;5014569;28;20262;-86
2022/03/04 14:45:57;;;;;;;16.67;9.47;;;6.50;18.80;;;;;;5016262;28;20279;-85
2022/03/04 14:48:26;;;;;;;13.43;8.70;;;6.50;19.00;;;;;;5016847;28;20247;-86
2022/03/04 14:50:53;;;;;;;12.50;8.80;;;6.40;18.80;;;;;;5019988;28;20302;-86
2022/03/04 14:53:20;;;;;;;12.00;8.73;;;6.40;19.00;;;;;;5016232;28;20298;-87
2022/03/04 14:55:56;;;;;;;12.80;8.37;;;6.30;18.90;;;;;;5007552;28;20274;-86
2022/03/04 14:58:25;;;;;;;13.77;7.87;;;6.30;18.50;;;;;;5023520;28;20713;-88
2022/03/04 15:00:53;;;;;;;13.47;8.37;;;6.30;18.90;;;;;;5016076;28;20229;-87
2022/03/04 15:03:20;;;;;;;11.97;7.97;;;6.30;18.30;;;;;;5011714;28;20213;-87
2022/03/04 15:05:49;;;;;;;11.30;7.50;;;6.40;18.60;;;;;;5014646;28;20317;-87
2022/03/04 15:08:17;;;;;;;9.27;7.33;;;6.40;18.40;;;;;;5016663;28;20199;-86
2022/03/04 15:10:44;;;;;;;7.83;6.00;;;6.30;18.90;;;;;;5016840;28;20225;-85
2022/03/04 15:13:31;;;;;;;7.23;4.83;;;6.30;18.30;;;;;;5018006;28;20878;-85
2022/03/04 15:16:05;;;;;;;9.43;5.87;;;6.30;17.20;;;;;;5020475;28;20234;-85
2022/03/04 15:18:33;;;;;;;8.90;6.50;;;6.30;18.20;;;;;;5016775;28;20215;-87
2022/03/04 15:21:04;;;;;;;9.23;5.90;;;6.20;18.40;;;;;;5014603;28;20239;-87
2022/03/04 15:23:31;;;;;;;9.50;6.13;;;6.30;17.70;;;;;;5019390;28;20275;-89
2022/03/04 15:25:59;;;;;;;8.70;6.00;;;6.20;17.70;;;;;;5030507;28;20623;-83
2022/03/04 15:31:58;;;;;;;7.60;4.60;;;6.10;16.70;;;;;;5019971;28;20211;-87
2022/03/04 15:34:26;;;;;;;7.43;5.47;;;6.00;16.30;;;;;;5019509;28;20210;-87
2022/03/04 15:40:33;;;;;;;7.83;5.77;;;6.00;18.00;;;;;;5031853;28;20228;-84
2022/03/04 15:43:00;;;;;;;8.60;5.60;;;6.10;18.50;;;;;;5044176;28;20213;-85
2022/03/04 15:45:27;;;;;;;8.50;4.97;;;6.10;18.40;;;;;;5039916;28;20346;-85
2022/03/04 15:47:55;;;;;;;6.47;5.03;;;6.20;18.60;;;;;;5023378;28;20226;-84
2022/03/04 15:50:23;;;;;;;7.37;5.00;;;6.10;18.40;;;;;;5023093;28;20605;-85
2022/03/04 15:52:50;;;;;;;7.77;4.80;;;6.00;18.80;;;;;;5025652;28;20290;-86
2022/03/04 15:55:21;;;;;;;6.80;4.67;;;6.00;19.00;;;;;;5027182;28;20246;-87
2022/03/04 15:57:50;;;;;;;6.13;4.70;;;5.90;19.60;;;;;;5003337;28;20276;-87
2022/03/04 16:03:47;;;;;;;6.53;4.23;;;5.70;19.60;;;;;;5014866;28;20253;-86
2022/03/04 16:06:15;;;;;;;9.33;4.87;;;5.60;19.50;;;;;;5024294;28;20238;-86
2022/03/04 16:08:42;;;;;;;6.97;4.37;;;5.50;19.90;;;;;;5024039;28;20207;-87
2022/03/04 16:22:16;;;;;;;5.93;3.80;;;5.20;19.90;;;;;;5032760;28;20195;-87
2022/03/04 16:24:46;;;;;;;6.27;4.10;;;5.10;19.70;;;;;;5024877;28;20199;-87
2022/03/04 16:27:23;;;;;;;8.63;3.83;;;5.10;20.30;;;;;;5027191;28;20218;-87
2022/03/04 16:29:50;;;;;;;7.13;4.37;;;5.00;21.30;;;;;;5021791;28;20285;-86
2022/03/04 16:32:28;;;;;;;7.67;4.07;;;5.00;22.40;;;;;;5019969;28;20219;-87
2022/03/04 16:35:19;;;;;;;12.07;4.23;;;4.90;21.30;;;;;;5017247;28;20564;-87
2022/03/04 16:41:21;;;;;;;5.20;3.67;;;4.80;21.20;;;;;;5007843;28;20222;-86
2022/03/04 16:43:57;;;;;;;6.20;4.03;;;4.70;21.10;;;;;;5018221;28;20227;-88
2022/03/04 16:46:26;;;;;;;9.27;4.37;;;4.60;21.00;;;;;;5029390;28;20203;-87
2022/03/04 16:49:33;;;;;;;6.87;4.57;;;4.60;21.00;;;;;;5025623;28;20221;-88
2022/03/04 16:52:10;;;;;;;7.57;4.47;;;4.50;21.00;;;;;;5028057;28;20230;-88
2022/03/04 16:54:39;;;;;;;9.40;5.10;;;4.50;21.00;;;;;;5032147;28;20235;-86
2022/03/04 16:57:39;;;;;;;6.63;4.73;;;4.40;21.60;;;;;;5026110;28;20250;-86
2022/03/04 17:00:11;;;;;;;6.33;5.03;;;4.40;23.70;;;;;;5026133;28;20231;-85
2022/03/04 17:02:56;;;;;;;8.57;5.60;;;4.30;24.10;;;;;;5026321;28;20199;-89
2022/03/04 17:05:24;;;;;;;8.77;4.90;;;4.20;24.80;;;;;;5032771;28;20203;-90
2022/03/04 17:08:03;;;;;;;8.57;5.27;;;4.10;25.20;;;;;;5026885;28;20207;-88
2022/03/04 17:10:33;;;;;;;7.83;4.97;;;4.00;25.40;;;;;;5030538;28;20223;-87
2022/03/04 17:13:01;;;;;;;7.43;4.93;;;3.90;25.60;;;;;;5009902;28;20210;-86
2022/03/04 17:21:25;;;;;;;8.77;5.20;;;3.70;26.50;;;;;;5021310;28;20199;-88
2022/03/04 17:24:27;;;;;;;10.57;5.70;;;3.70;26.80;;;;;;5010330;28;20654;-87
2022/03/04 17:31:28;;;;;;;8.77;5.40;;;3.50;27.30;;;;;;5017797;28;20231;-88
2022/03/04 17:33:58;;;;;;;9.13;5.03;;;3.50;27.60;;;;;;5036641;28;20190;-88
2022/03/04 17:36:26;;;;;;;9.10;5.70;;;3.50;27.70;;;;;;5038416;28;20199;-87
2022/03/04 17:38:54;;;;;;;10.80;6.40;;;3.40;27.90;;;;;;5025185;28;20195;-88
2022/03/04 17:41:51;;;;;;;10.33;6.43;;;3.40;28.00;;;;;;5030466;28;20306;-90
2022/03/04 17:44:19;;;;;;;10.53;6.23;;;3.30;28.20;;;;;;5029365;28;20790;-87
2022/03/04 17:46:54;;;;;;;10.33;5.73;;;3.30;28.70;;;;;;5029623;28;20183;-88
2022/03/04 17:49:22;;;;;;;11.97;6.20;;;3.20;28.70;;;;;;5027252;28;20229;-87
2022/03/04 17:51:50;;;;;;;11.90;6.17;;;3.20;28.70;;;;;;5026761;28;20633;-86
2022/03/04 17:54:42;;;;;;;7.93;5.60;;;3.20;29.20;;;;;;5026211;28;20286;-86
2022/03/04 18:04:17;;;;;;;9.80;5.27;;;3.00;29.60;;;;;;5027459;28;20179;-86
2022/03/04 18:06:46;;;;;;;10.60;5.30;;;2.90;29.80;;;;;;5035537;28;20209;-87
2022/03/04 18:41:05;;;;;;;14.57;9.13;;;2.50;32.40;;;;;;5037318;28;20188;-86
2022/03/04 19:39:49;;;;;;;12.43;7.43;;;1.60;38.00;;;;;;5816953;23;20226;-88
2022/03/04 19:46:14;;;;;;;13.23;7.43;;;1.50;38.90;;;;;;5022351;28;20664;-88
2022/03/04 20:29:57;;;;;;;15.30;8.20;;;0.90;44.40;;;;;;4973170;28;20229;-88
2022/03/04 20:33:27;;;;;;;14.90;9.00;;;0.90;45.00;;;;;;4947886;28;20226;-87
2022/03/04 20:59:19;;;;;;;17.90;10.10;;;0.60;48.60;;;;;;5019511;28;20233;-90
2022/03/04 21:02:47;;;;;;;16.30;9.80;;;0.50;49.30;;;;;;4984620;28;20212;-88
2022/03/04 21:05:18;;;;;;;16.30;9.53;;;0.60;49.60;;;;;;5003921;28;20264;-91
2022/03/04 21:07:49;;;;;;;17.43;9.30;;;0.60;49.30;;;;;;5009647;28;20609;-87
2022/03/04 21:11:13;;;;;;;17.33;9.00;;;0.70;49.00;;;;;;5011782;28;20221;-89
2022/03/04 21:14:20;;;;;;;14.00;8.63;;;0.80;47.80;;;;;;5022066;28;20194;-89
2022/03/04 21:16:48;;;;;;;14.73;8.07;;;0.70;48.40;;;;;;5020578;28;20218;-89
2022/03/04 21:19:15;;;;;;;12.20;7.83;;;0.70;48.50;;;;;;5021812;28;20240;-88
2022/03/04 21:21:50;;;;;;;13.77;8.47;;;0.60;49.10;;;;;;5010602;28;20661;-89
2022/03/04 21:24:21;;;;;;;16.70;8.73;;;0.60;49.70;;;;;;5022655;28;20228;-89
2022/03/04 21:26:50;;;;;;;15.77;8.43;;;0.50;50.10;;;;;;5021386;28;20293;-89
2022/03/04 21:29:17;;;;;;;14.43;8.20;;;0.40;50.90;;;;;;5020131;28;20403;-89
2022/03/04 21:31:45;;;;;;;14.73;8.37;;;0.30;51.00;;;;;;5031444;28;20221;-87
2022/03/04 21:34:45;;;;;;;14.57;9.10;;;0.30;51.70;;;;;;5036278;28;20632;-87
2022/03/04 21:37:14;;;;;;;14.30;8.20;;;0.30;52.80;;;;;;5038839;28;20256;-88
2022/03/04 21:39:47;;;;;;;13.13;7.60;;;0.40;52.30;;;;;;5013979;28;20203;-88
2022/03/04 21:42:15;;;;;;;19.57;8.30;;;0.40;51.80;;;;;;5024387;28;20220;-88
2022/03/04 21:44:42;;;;;;;16.73;8.30;;;0.40;51.50;;;;;;5025620;28;20290;-89
2022/03/04 21:47:10;;;;;;;12.93;8.00;;;0.50;51.40;;;;;;5014646;28;20222;-88
2022/03/04 21:49:49;;;;;;;16.20;7.90;;;0.40;52.30;;;;;;5032571;23;20658;-88
2022/03/04 21:52:18;;;;;;;12.87;8.30;;;0.50;52.40;;;;;;5026687;28;20237;-89
2022/03/04 21:55:00;;;;;;;13.63;7.53;;;0.50;51.90;;;;;;5018063;28;20230;-90
2022/03/04 21:57:38;;;;;;;14.13;8.10;;;0.30;52.30;;;;;;5023903;28;20280;-87
2022/03/04 22:00:07;;;;;;;13.87;8.90;;;0.40;53.20;;;;;;5026550;28;20270;-90
2022/03/04 22:02:35;;;;;;;14.90;8.20;;;0.40;53.10;;;;;;5004860;28;20200;-87
2022/03/04 22:05:02;;;;;;;13.03;8.37;;;0.40;52.30;;;;;;5028093;28;20202;-87
2022/03/04 22:07:42;;;;;;;13.77;9.00;;;0.40;52.80;;;;;;5023706;28;20207;-89
2022/03/04 22:10:13;;;;;;;14.17;8.77;;;0.40;52.60;;;;;;5017517;28;20300;-91
2022/03/04 22:12:50;;;;;;;14.13;8.80;;;0.40;52.80;;;;;;5021672;28;20239;-89
2022/03/04 22:15:18;;;;;;;13.83;9.07;;;0.30;53.20;;;;;;5020760;28;20222;-89
2022/03/04 22:17:45;;;;;;;15.80;9.50;;;0.20;54.20;;;;;;5022636;28;20332;-89
2022/03/04 22:20:18;;;;;;;13.97;8.90;;;0.20;54.60;;;;;;5009003;28;20278;-90
2022/03/04 22:25:28;;;;;;;15.73;8.60;;;0.10;54.50;;;;;;5015584;28;20274;-92
2022/03/04 22:27:59;;;;;;;14.90;9.10;;;0.20;54.70;;;;;;5022763;28;20262;-90
2022/03/04 22:30:26;;;;;;;17.77;10.13;;;0.10;55.20;;;;;;5021484;28;20261;-89
2022/03/04 22:32:54;;;;;;;15.73;9.67;;;0.10;55.00;;;;;;5003730;28;20256;-90
2022/03/04 22:35:33;;;;;;;14.90;8.80;;;0.10;54.80;;;;;;5017367;28;20682;-89
2022/03/04 22:38:22;;;;;;;16.13;9.20;;;0.10;54.90;;;;;;5019430;28;20196;-89
2022/03/04 22:41:09;;;;;;;18.50;10.07;;;0.00;55.20;;;;;;5015564;28;20226;-89
2022/03/04 22:43:37;;;;;;;15.93;10.00;;;0.00;56.40;;;;;;5021822;28;20218;-91
2022/03/04 22:46:04;;;;;;;19.33;10.00;;;-0.10;56.60;;;;;;5004437;28;20225;-88
2022/03/04 22:48:31;;;;;;;17.27;10.03;;;-0.10;57.30;;;;;;5026218;28;20227;-89
2022/03/04 22:51:00;;;;;;;17.00;10.13;;;-0.10;57.80;;;;;;5025230;28;20230;-89
2022/03/04 22:53:29;;;;;;;20.20;9.90;;;-0.20;58.40;;;;;;5020680;28;20203;-87
2022/03/04 22:55:56;;;;;;;24.00;10.53;;;-0.30;59.00;;;;;;5004644;28;20226;-88
2022/03/04 22:58:36;;;;;;;16.47;9.97;;;-0.30;59.80;;;;;;5022206;28;20237;-88
2022/03/04 23:16:40;;;;;;;17.67;9.07;;;-0.40;60.70;;;;;;5024055;28;20253;-87
2022/03/04 23:19:46;;;;;;;17.40;9.27;;;-0.40;59.70;;;;;;5021185;28;20228;-87
2022/03/04 23:22:14;;;;;;;17.00;9.20;;;-0.40;60.00;;;;;;5020325;28;20211;-87
2022/03/04 23:24:41;;;;;;;16.60;9.20;;;-0.40;60.40;;;;;;5020982;28;20301;-87
2022/03/04 23:27:09;;;;;;;15.37;9.43;;;-0.40;60.10;;;;;;5031286;28;20205;-88
2022/03/04 23:29:37;;;;;;;17.07;9.37;;;-0.50;60.30;;;;;;5005866;28;20216;-88
2022/03/04 23:32:21;;;;;;;17.87;9.63;;;-0.40;60.60;;;;;;5023072;28;20248;-88
2022/03/04 23:34:48;;;;;;;17.10;9.77;;;-0.60;61.30;;;;;;5023629;28;20259;-88
2022/03/04 23:38:10;;;;;;;16.37;9.30;;;-0.60;62.10;;;;;;5030911;28;20221;-88
2022/03/04 23:40:37;;;;;;;16.60;9.97;;;-0.50;62.90;;;;;;5043124;28;20234;-88
2022/03/04 23:43:31;;;;;;;15.57;9.93;;;-0.50;62.70;;;;;;5035213;28;20593;-88
2022/03/04 23:45:59;;;;;;;17.77;10.33;;;-0.60;62.20;;;;;;5024121;28;20291;-88
2022/03/04 23:48:26;;;;;;;17.10;10.37;;;-0.50;63.00;;;;;;5022512;28;20311;-88
2022/03/04 23:54:31;;;;;;;17.93;10.70;;;-0.70;63.70;;;;;;5028608;28;20170;-89
2022/03/04 23:56:58;;;;;;;19.77;10.17;;;-0.70;63.70;;;;;;5026275;28;20234;-89
2022/03/04 23:59:27;;;;;;;21.23;10.70;;;-0.70;63.70;;;;;;5010478;28;20218;-89
